createdAt,value
2023-02-23T00:02:07.305Z,32.40
2023-02-23T00:04:35.456Z,33.87
2023-02-23T00:07:02.986Z,34.33
2023-02-23T00:09:35.316Z,38.73
2023-02-23T00:12:09.556Z,43.97
2023-02-23T00:14:38.251Z,37.77
2023-02-23T00:17:14.184Z,35.33
2023-02-23T00:19:43.562Z,37.83
2023-02-23T00:22:10.884Z,32.53
2023-02-23T00:24:38.852Z,36.93
2023-02-23T00:27:06.783Z,39.10
2023-02-23T00:29:40.005Z,41.15
2023-02-23T00:32:08.073Z,41.43
2023-02-23T00:34:36.666Z,38.80
2023-02-23T00:37:03.426Z,37.40
2023-02-23T00:39:30.209Z,35.08
2023-02-23T00:42:02.483Z,34.53
2023-02-23T00:44:30.192Z,35.80
2023-02-23T00:46:56.956Z,36.85
2023-02-23T00:49:23.904Z,36.97
2023-02-23T00:51:52.174Z,33.03
2023-02-23T00:54:21.431Z,38.33
2023-02-23T00:56:49.327Z,37.10
2023-02-23T00:59:16.739Z,37.73
2023-02-23T01:01:44.275Z,35.53
2023-02-23T01:04:12.568Z,36.38
2023-02-23T01:06:41.607Z,38.33
2023-02-23T01:09:21.918Z,35.47
2023-02-23T01:11:48.804Z,38.07
2023-02-23T01:14:15.869Z,32.83
2023-02-23T01:16:42.712Z,37.30
2023-02-23T01:19:10.540Z,36.73
2023-02-23T01:21:42.008Z,34.63
2023-02-23T01:24:09.373Z,37.77
2023-02-23T01:26:43.956Z,36.40
2023-02-23T01:29:17.391Z,35.30
2023-02-23T01:31:48.399Z,38.15
2023-02-23T01:34:15.757Z,36.27
2023-02-23T01:36:44.652Z,31.90
2023-02-23T01:39:20.992Z,33.17
2023-02-23T01:41:51.710Z,33.17
2023-02-23T01:44:18.429Z,35.67
2023-02-23T01:46:47.489Z,37.77
2023-02-23T01:49:22.049Z,34.40
2023-02-23T01:52:13.212Z,34.53
2023-02-23T01:54:54.994Z,33.47
2023-02-23T01:57:25.118Z,35.45
2023-02-23T01:59:52.627Z,33.73
2023-02-23T02:02:27.598Z,31.67
2023-02-23T02:04:56.398Z,32.87
2023-02-23T02:07:29.022Z,31.67
2023-02-23T02:10:21.982Z,35.22
2023-02-23T02:12:56.915Z,33.72
2023-02-23T02:15:33.086Z,32.57
2023-02-23T02:18:38.106Z,29.42
2023-02-23T02:21:46.945Z,35.33
2023-02-23T02:24:38.764Z,32.30
2023-02-23T02:27:26.488Z,27.80
2023-02-23T02:30:40.450Z,30.75
2023-02-23T02:33:32.148Z,33.10
2023-02-23T02:36:18.710Z,38.73
2023-02-23T02:39:23.934Z,34.17
2023-02-23T02:42:15.754Z,36.22
2023-02-23T02:45:02.828Z,34.47
2023-02-23T02:48:04.765Z,36.17
2023-02-23T02:50:50.666Z,35.40
2023-02-23T02:53:37.759Z,35.47
2023-02-23T02:56:07.341Z,36.03
2023-02-23T02:58:35.859Z,34.70
2023-02-23T03:01:32.935Z,37.77
2023-02-23T03:04:37.652Z,39.90
2023-02-23T03:07:50.230Z,31.67
2023-02-23T03:11:06.451Z,35.47
2023-02-23T03:14:12.649Z,35.57
2023-02-23T03:17:24.318Z,38.43
2023-02-23T03:20:29.495Z,36.90
2023-02-23T03:23:39.330Z,38.87
2023-02-23T03:26:46.161Z,38.53
2023-02-23T03:30:08.548Z,35.67
2023-02-23T03:33:10.893Z,38.40
2023-02-23T03:36:02.309Z,32.97
2023-02-23T03:39:11.614Z,36.20
2023-02-23T03:42:02.921Z,34.37
2023-02-23T03:45:04.476Z,32.70
2023-02-23T03:47:56.307Z,34.77
2023-02-23T03:50:59.200Z,37.23
2023-02-23T03:53:56.901Z,40.10
2023-02-23T03:56:46.855Z,42.93
2023-02-23T03:59:37.297Z,37.63
2023-02-23T04:02:26.555Z,38.83
2023-02-23T04:05:20.835Z,39.03
2023-02-23T04:08:10.462Z,34.45
2023-02-23T04:11:07.484Z,39.55
2023-02-23T04:13:38.597Z,44.33
2023-02-23T04:16:11.415Z,36.23
2023-02-23T04:18:39.766Z,38.50
2023-02-23T04:21:07.606Z,41.77
2023-02-23T04:23:37.925Z,38.10
2023-02-23T04:26:05.140Z,42.27
2023-02-23T04:28:32.056Z,41.60
2023-02-23T04:30:58.939Z,40.10
2023-02-23T04:33:27.152Z,42.20
2023-02-23T04:35:54.922Z,40.37
2023-02-23T04:38:23.091Z,42.97
2023-02-23T04:40:50.933Z,44.28
2023-02-23T04:43:17.709Z,46.92
2023-02-23T04:45:44.912Z,48.67
2023-02-23T04:48:11.738Z,37.40
2023-02-23T04:50:39.592Z,38.03
2023-02-23T04:53:06.526Z,42.37
2023-02-23T04:55:33.526Z,43.10
2023-02-23T04:58:02.208Z,43.07
2023-02-23T05:00:29.904Z,41.77
2023-02-23T05:02:58.095Z,42.40
2023-02-23T05:05:25.331Z,41.97
2023-02-23T05:07:53.032Z,43.80
2023-02-23T05:10:19.867Z,51.53
2023-02-23T05:12:46.977Z,41.13
2023-02-23T05:15:13.817Z,42.75
2023-02-23T05:17:41.964Z,48.67
2023-02-23T05:20:13.532Z,53.37
2023-02-23T05:22:40.955Z,50.27
2023-02-23T05:25:10.119Z,45.97
2023-02-23T05:27:37.211Z,44.53
2023-02-23T05:30:07.823Z,46.90
2023-02-23T05:32:34.985Z,45.43
2023-02-23T05:35:02.610Z,44.53
2023-02-23T05:37:29.520Z,44.53
2023-02-23T05:39:56.357Z,48.73
2023-02-23T05:42:23.189Z,47.37
2023-02-23T05:44:50.046Z,55.13
2023-02-23T05:47:17.063Z,49.97
2023-02-23T05:49:46.136Z,47.90
2023-02-23T05:52:13.160Z,51.47
2023-02-23T05:54:39.946Z,54.17
2023-02-23T05:57:08.294Z,53.23
2023-02-23T05:59:35.186Z,51.47
2023-02-23T06:02:05.893Z,53.07
2023-02-23T06:04:33.330Z,57.00
2023-02-23T06:07:00.194Z,52.60
2023-02-23T06:09:27.257Z,51.67
2023-02-23T06:11:54.141Z,51.00
2023-02-23T06:14:21.086Z,52.63
2023-02-23T06:16:48.864Z,53.78
2023-02-23T06:19:15.920Z,52.20
2023-02-23T06:21:42.830Z,56.30
2023-02-23T06:24:10.326Z,56.07
2023-02-23T06:26:37.143Z,57.33
2023-02-23T06:29:04.076Z,56.90
2023-02-23T06:31:31.396Z,62.43
2023-02-23T06:33:58.688Z,63.30
2023-02-23T06:36:25.541Z,57.80
2023-02-23T06:38:56.549Z,61.43
2023-02-23T06:41:24.114Z,60.87
2023-02-23T06:43:51.964Z,64.38
2023-02-23T06:46:19.708Z,66.70
2023-02-23T06:48:46.922Z,60.03
2023-02-23T06:51:13.830Z,58.88
2023-02-23T06:53:40.741Z,66.37
2023-02-23T06:56:07.975Z,64.07
2023-02-23T06:58:34.777Z,58.35
2023-02-23T07:01:01.827Z,62.30
2023-02-23T07:03:28.607Z,59.05
2023-02-23T07:05:55.470Z,59.95
2023-02-23T07:08:22.361Z,61.97
2023-02-23T07:10:49.254Z,62.38
2023-02-23T07:13:16.468Z,65.47
2023-02-23T07:15:43.594Z,64.67
2023-02-23T07:18:10.458Z,68.43
2023-02-23T07:20:37.679Z,72.73
2023-02-23T07:23:04.542Z,74.90
2023-02-23T07:25:31.579Z,67.70
2023-02-23T07:27:59.129Z,76.63
2023-02-23T07:30:26.108Z,61.90
2023-02-23T07:32:54.001Z,70.15
2023-02-23T07:35:21.205Z,70.85
2023-02-23T07:37:48.139Z,62.42
2023-02-23T07:40:15.132Z,66.72
2023-02-23T07:42:41.976Z,63.63
2023-02-23T07:45:09.790Z,80.60
2023-02-23T07:47:37.653Z,76.15
2023-02-23T07:50:10.358Z,70.37
2023-02-23T07:52:40.048Z,72.88
2023-02-23T07:55:08.701Z,71.70
2023-02-23T07:57:35.754Z,65.50
2023-02-23T08:00:03.008Z,60.35
2023-02-23T08:02:30.000Z,39.45
2023-02-23T08:04:56.836Z,43.70
2023-02-23T08:07:25.815Z,47.37
2023-02-23T08:09:53.686Z,43.20
2023-02-23T08:12:20.636Z,43.83
2023-02-23T08:14:47.477Z,43.83
2023-02-23T08:17:14.341Z,47.57
2023-02-23T08:19:41.240Z,46.93
2023-02-23T08:22:10.142Z,52.45
2023-02-23T08:24:38.531Z,47.35
2023-02-23T08:27:05.469Z,48.72
2023-02-23T08:29:36.390Z,47.50
2023-02-23T08:32:05.118Z,52.55
2023-02-23T08:34:32.349Z,47.90
2023-02-23T08:37:00.076Z,47.80
2023-02-23T08:39:27.151Z,45.53
2023-02-23T08:41:55.462Z,40.63
2023-02-23T08:44:22.319Z,41.97
2023-02-23T08:46:49.260Z,36.53
2023-02-23T08:49:16.441Z,37.72
2023-02-23T08:51:43.301Z,37.55
2023-02-23T08:54:14.549Z,43.35
2023-02-23T08:56:42.341Z,38.00
2023-02-23T08:59:09.867Z,40.08
2023-02-23T09:01:37.246Z,36.70
2023-02-23T09:04:05.592Z,37.50
2023-02-23T09:06:35.139Z,39.35
2023-02-23T09:09:02.194Z,35.00
2023-02-23T09:11:29.388Z,36.72
2023-02-23T09:13:56.216Z,36.38
2023-02-23T09:16:23.123Z,33.78
2023-02-23T09:18:50.127Z,35.53
2023-02-23T09:21:25.346Z,33.67
2023-02-23T09:23:55.969Z,31.40
2023-02-23T09:26:24.424Z,32.58
2023-02-23T09:28:51.682Z,32.90
2023-02-23T09:31:22.846Z,35.97
2023-02-23T09:33:51.982Z,31.27
2023-02-23T09:36:24.740Z,30.00
2023-02-23T09:38:57.036Z,37.30
2023-02-23T09:41:30.167Z,35.90
2023-02-23T09:44:28.785Z,33.47
2023-02-23T09:47:13.803Z,34.88
2023-02-23T09:49:45.722Z,38.85
2023-02-23T09:52:24.037Z,37.30
2023-02-23T09:54:51.531Z,34.97
2023-02-23T09:57:36.612Z,35.22
2023-02-23T10:00:31.529Z,36.80
2023-02-23T10:03:28.146Z,35.33
2023-02-23T10:06:04.348Z,34.65
2023-02-23T10:09:03.451Z,36.40
2023-02-23T10:11:42.124Z,30.05
2023-02-23T10:14:21.513Z,34.20
2023-02-23T10:17:05.870Z,32.05
2023-02-23T10:20:06.271Z,30.98
2023-02-23T10:22:36.290Z,28.00
2023-02-23T10:25:18.058Z,32.38
2023-02-23T10:27:50.669Z,33.15
2023-02-23T10:30:29.590Z,29.45
2023-02-23T10:33:01.552Z,30.63
2023-02-23T10:35:31.254Z,31.35
2023-02-23T10:38:01.114Z,37.97
2023-02-23T10:40:33.156Z,39.67
2023-02-23T10:43:03.908Z,33.00
2023-02-23T10:45:41.373Z,38.40
2023-02-23T10:48:16.812Z,35.30
2023-02-23T10:50:45.724Z,36.28
2023-02-23T10:53:28.406Z,35.90
2023-02-23T10:56:13.248Z,35.72
2023-02-23T10:58:44.484Z,35.67
2023-02-23T11:01:11.433Z,36.17
2023-02-23T11:03:44.162Z,37.13
2023-02-23T11:06:32.892Z,35.60
2023-02-23T11:09:24.859Z,36.17
2023-02-23T11:12:02.764Z,37.10
2023-02-23T11:14:31.916Z,37.67
2023-02-23T11:17:00.565Z,36.78
2023-02-23T11:19:38.605Z,37.00
2023-02-23T11:22:07.883Z,38.97
2023-02-23T11:24:39.943Z,41.10
2023-02-23T11:27:21.120Z,39.97
2023-02-23T11:29:52.414Z,41.42
2023-02-23T11:32:33.886Z,41.63
2023-02-23T11:35:22.331Z,47.58
2023-02-23T11:37:49.994Z,46.70
2023-02-23T11:40:34.883Z,45.80
2023-02-23T11:43:16.451Z,48.47
2023-02-23T11:45:53.791Z,47.97
2023-02-23T11:48:25.273Z,46.97
2023-02-23T11:50:53.469Z,51.00
2023-02-23T11:53:43.001Z,50.15
2023-02-23T11:56:13.231Z,57.03
2023-02-23T11:58:49.846Z,51.55
2023-02-23T12:01:23.557Z,46.63
2023-02-23T12:03:58.467Z,51.25
2023-02-23T12:06:36.978Z,51.80
2023-02-23T12:09:25.749Z,35.40
2023-02-23T12:12:09.872Z,29.60
2023-02-23T12:15:15.730Z,27.40
2023-02-23T12:17:58.427Z,24.37
2023-02-23T12:20:37.998Z,23.45
2023-02-23T12:23:11.294Z,22.20
2023-02-23T12:25:56.805Z,19.67
2023-02-23T12:28:34.405Z,22.10
2023-02-23T12:31:20.282Z,20.63
2023-02-23T12:34:14.479Z,26.67
2023-02-23T12:36:58.179Z,22.83
2023-02-23T12:39:34.985Z,24.30
2023-02-23T12:42:17.859Z,21.93
2023-02-23T12:45:04.033Z,24.75
2023-02-23T12:48:02.967Z,21.95
2023-02-23T12:50:44.270Z,21.27
2023-02-23T12:53:40.090Z,24.45
2023-02-23T12:56:55.392Z,22.10
2023-02-23T12:59:59.286Z,28.02
2023-02-23T13:02:54.868Z,22.27
2023-02-23T13:05:51.195Z,28.70
2023-02-23T13:08:42.483Z,26.90
2023-02-23T13:12:09.316Z,27.73
2023-02-23T13:14:54.010Z,27.40
2023-02-23T13:18:01.626Z,25.90
2023-02-23T13:20:47.900Z,26.25
2023-02-23T13:23:32.219Z,26.23
2023-02-23T13:26:29.780Z,27.15
2023-02-23T13:29:02.544Z,27.02
2023-02-23T13:31:41.338Z,24.08
2023-02-23T13:34:27.830Z,24.27
2023-02-23T13:36:56.377Z,26.25
2023-02-23T13:39:47.779Z,26.35
2023-02-23T13:42:45.347Z,24.70
2023-02-23T13:45:32.722Z,28.42
2023-02-23T13:48:50.491Z,28.38
2023-02-23T13:51:49.472Z,25.33
2023-02-23T13:54:18.294Z,27.50
2023-02-23T13:56:53.046Z,35.50
2023-02-23T13:59:23.971Z,32.22
2023-02-23T14:01:53.990Z,29.65
2023-02-23T14:04:36.004Z,33.55
2023-02-23T14:07:22.083Z,35.33
2023-02-23T14:10:00.854Z,37.80
2023-02-23T14:12:42.380Z,34.83
2023-02-23T14:15:28.033Z,36.45
2023-02-23T14:18:03.141Z,31.27
2023-02-23T14:21:02.803Z,35.42
2023-02-23T14:23:36.896Z,37.85
2023-02-23T14:26:39.614Z,34.72
2023-02-23T14:29:28.249Z,35.55
2023-02-23T14:32:24.675Z,35.47
2023-02-23T14:35:32.746Z,37.38
2023-02-23T14:38:15.635Z,41.88
2023-02-23T14:40:49.248Z,47.40
2023-02-23T14:43:38.239Z,43.73
2023-02-23T14:46:23.280Z,41.75
2023-02-23T14:49:21.507Z,43.13
2023-02-23T14:51:58.476Z,43.35
2023-02-23T14:54:34.540Z,42.53
2023-02-23T14:57:17.688Z,42.83
2023-02-23T14:59:51.747Z,48.47
2023-02-23T15:02:24.266Z,50.20
2023-02-23T15:04:52.120Z,47.90
2023-02-23T15:07:40.646Z,57.13
2023-02-23T15:10:22.408Z,53.28
2023-02-23T15:12:49.467Z,53.15
2023-02-23T15:15:24.939Z,53.65
2023-02-23T15:17:57.861Z,51.72
2023-02-23T15:23:05.793Z,50.17
2023-02-23T15:25:39.340Z,49.28
2023-02-23T15:28:26.312Z,54.17
2023-02-23T15:30:57.008Z,56.67
2023-02-23T15:33:28.183Z,52.58
2023-02-23T15:36:16.405Z,56.80
2023-02-23T15:38:49.500Z,55.42
2023-02-23T15:41:34.786Z,57.50
2023-02-23T15:44:15.919Z,58.33
2023-02-23T15:46:49.994Z,58.80
2023-02-23T15:49:19.365Z,58.03
2023-02-23T15:51:51.592Z,57.78
2023-02-23T15:54:32.472Z,55.33
2023-02-23T15:57:07.072Z,60.97
2023-02-23T15:59:39.351Z,58.67
2023-02-23T16:02:19.488Z,58.20
2023-02-23T16:04:52.679Z,57.60
2023-02-23T16:07:23.142Z,54.13
2023-02-23T16:10:02.805Z,53.10
2023-02-23T16:12:38.669Z,63.83
2023-02-23T16:15:25.096Z,57.70
2023-02-23T16:18:20.257Z,66.57
2023-02-23T16:20:59.002Z,64.60
2023-02-23T16:23:41.532Z,65.53
2023-02-23T16:26:19.424Z,50.33
2023-02-23T16:28:47.119Z,60.43
2023-02-23T16:31:26.977Z,59.73
2023-02-23T16:33:58.692Z,60.03
2023-02-23T16:36:38.594Z,58.03
2023-02-23T16:39:11.913Z,58.27
2023-02-23T16:41:39.113Z,57.33
2023-02-23T16:44:12.956Z,63.90
2023-02-23T16:47:01.581Z,68.77
2023-02-23T16:49:30.196Z,60.17
2023-02-23T16:51:58.432Z,53.17
2023-02-23T16:54:26.362Z,57.70
2023-02-23T16:56:55.847Z,60.47
2023-02-23T16:59:24.137Z,60.67
2023-02-23T17:01:51.244Z,61.70
2023-02-23T17:04:20.563Z,56.87
2023-02-23T17:06:52.835Z,75.40
2023-02-23T17:09:19.622Z,57.10
2023-02-23T17:11:47.087Z,60.80
2023-02-23T17:14:27.959Z,55.63
2023-02-23T17:16:55.036Z,55.50
2023-02-23T17:19:24.450Z,59.13
2023-02-23T17:21:52.707Z,49.77
2023-02-23T17:24:19.510Z,55.53
2023-02-23T17:26:46.390Z,60.00
2023-02-23T17:29:13.166Z,57.73
2023-02-23T17:31:40.653Z,50.20
2023-02-23T17:34:07.850Z,59.07
2023-02-23T17:36:34.700Z,57.70
2023-02-23T17:39:02.382Z,56.60
2023-02-23T17:41:29.229Z,64.13
2023-02-23T17:43:56.062Z,68.43
2023-02-23T17:46:23.930Z,72.00
2023-02-23T17:48:50.985Z,68.97
2023-02-23T17:51:20.021Z,68.17
2023-02-23T17:53:47.528Z,71.73
2023-02-23T17:56:15.973Z,62.63
2023-02-23T17:58:43.133Z,59.67
2023-02-23T18:01:10.040Z,67.70
2023-02-23T18:03:37.747Z,71.18
2023-02-23T18:06:09.172Z,67.43
2023-02-23T18:08:38.144Z,68.37
2023-02-23T18:11:05.628Z,61.93
2023-02-23T18:13:33.787Z,59.67
2023-02-23T18:16:08.119Z,64.10
2023-02-23T18:18:38.499Z,63.00
2023-02-23T18:21:18.896Z,57.63
2023-02-23T18:23:46.275Z,56.70
2023-02-23T18:26:18.428Z,60.70
2023-02-23T18:28:46.507Z,64.47
2023-02-23T18:31:17.503Z,51.30
2023-02-23T18:33:46.148Z,50.97
2023-02-23T18:36:30.288Z,59.30
2023-02-23T18:38:59.152Z,53.90
2023-02-23T18:41:31.183Z,47.70
2023-02-23T18:44:04.732Z,48.20
2023-02-23T18:46:32.385Z,46.97
2023-02-23T18:48:59.490Z,51.37
2023-02-23T18:51:26.766Z,44.33
2023-02-23T18:53:54.174Z,43.17
2023-02-23T18:56:27.160Z,50.57
2023-02-23T18:58:59.121Z,42.97
2023-02-23T19:01:29.752Z,42.80
2023-02-23T19:04:00.356Z,45.93
2023-02-23T19:06:29.073Z,43.93
2023-02-23T19:08:59.426Z,56.90
2023-02-23T19:11:32.308Z,50.70
2023-02-23T19:14:03.756Z,47.30
2023-02-23T19:16:32.284Z,47.13
2023-02-23T19:19:01.050Z,44.43
2023-02-23T19:21:28.221Z,52.23
2023-02-23T19:23:57.722Z,56.27
2023-02-23T19:26:26.000Z,48.63
2023-02-23T19:28:53.565Z,51.47
2023-02-23T19:31:25.794Z,46.27
2023-02-23T19:33:55.932Z,46.47
2023-02-23T19:36:29.661Z,46.77
2023-02-23T19:39:10.807Z,41.83
2023-02-23T19:41:39.770Z,56.50
2023-02-23T19:44:07.224Z,49.27
2023-02-23T19:46:35.167Z,40.77
2023-02-23T19:49:02.826Z,42.23
2023-02-23T19:51:30.296Z,41.73
2023-02-23T19:53:58.674Z,43.73
2023-02-23T19:56:30.219Z,39.17
2023-02-23T19:58:59.487Z,43.00
2023-02-23T20:01:27.780Z,42.07
2023-02-23T20:03:57.282Z,43.43
2023-02-23T20:06:27.629Z,40.47
2023-02-23T20:08:55.199Z,39.43
2023-02-23T20:11:23.373Z,36.60
2023-02-23T20:13:51.287Z,46.87
2023-02-23T20:16:19.146Z,46.60
2023-02-23T20:18:46.975Z,44.20
2023-02-23T20:21:23.119Z,42.53
2023-02-23T20:23:51.424Z,44.83
2023-02-23T20:26:26.473Z,36.33
2023-02-23T20:28:54.642Z,43.30
2023-02-23T20:31:35.230Z,42.20
2023-02-23T20:34:09.857Z,45.33
2023-02-23T20:36:37.416Z,39.73
2023-02-23T20:39:04.631Z,39.67
2023-02-23T20:41:31.971Z,41.50
2023-02-23T20:44:00.779Z,36.50
2023-02-23T20:46:30.661Z,38.77
2023-02-23T20:48:59.200Z,43.33
2023-02-23T20:51:27.109Z,34.03
2023-02-23T20:53:54.095Z,33.20
2023-02-23T20:56:25.509Z,30.10
2023-02-23T20:58:54.221Z,31.73
2023-02-23T21:01:24.063Z,24.57
2023-02-23T21:03:54.031Z,24.07
2023-02-23T21:06:25.086Z,25.37
2023-02-23T21:08:55.578Z,23.57
2023-02-23T21:11:27.866Z,26.37
2023-02-23T21:13:55.418Z,28.33
2023-02-23T21:16:24.340Z,27.50
2023-02-23T21:19:03.841Z,25.70
2023-02-23T21:21:58.090Z,21.77
2023-02-23T21:24:26.120Z,24.97
2023-02-23T21:26:52.947Z,28.63
2023-02-23T21:29:23.627Z,24.77
2023-02-23T21:31:51.265Z,27.97
2023-02-23T21:34:20.920Z,26.50
2023-02-23T21:36:48.367Z,30.00
2023-02-23T21:39:15.234Z,31.90
2023-02-23T21:41:42.003Z,28.00
2023-02-23T21:44:09.017Z,25.77
2023-02-23T21:46:36.580Z,28.33
2023-02-23T21:49:07.252Z,27.67
2023-02-23T21:51:34.636Z,25.53
2023-02-23T21:54:01.612Z,27.80
2023-02-23T21:56:29.467Z,25.10
2023-02-23T21:58:56.782Z,26.73
2023-02-23T22:01:36.770Z,27.63
2023-02-23T22:04:07.602Z,24.87
2023-02-23T22:06:40.929Z,20.93
2023-02-23T22:09:10.926Z,24.20
2023-02-23T22:11:43.762Z,26.23
2023-02-23T22:14:11.289Z,22.03
2023-02-23T22:16:42.037Z,30.10
2023-02-23T22:19:09.396Z,26.20
2023-02-23T22:21:39.449Z,19.93
2023-02-23T22:24:08.016Z,20.03
2023-02-23T22:26:42.379Z,26.63
2023-02-23T22:29:11.201Z,25.97
2023-02-23T22:31:39.694Z,21.53
2023-02-23T22:34:07.266Z,23.80
2023-02-23T22:36:34.866Z,19.00
2023-02-23T22:39:06.216Z,19.27
2023-02-23T22:41:33.101Z,24.40
2023-02-23T22:43:59.868Z,23.27
2023-02-23T22:46:26.774Z,21.97
2023-02-23T22:48:53.623Z,22.67
2023-02-23T22:51:20.931Z,24.77
2023-02-23T22:53:48.128Z,31.50
2023-02-23T22:56:14.985Z,27.57
2023-02-23T22:58:42.339Z,29.50
2023-02-23T23:01:11.650Z,35.63
2023-02-23T23:03:41.178Z,29.87
2023-02-23T23:06:16.460Z,27.30
2023-02-23T23:08:45.656Z,31.50
2023-02-23T23:11:25.853Z,37.40
2023-02-23T23:14:02.777Z,32.80
2023-02-23T23:16:33.532Z,33.73
2023-02-23T23:19:07.816Z,39.43
2023-02-23T23:21:35.736Z,35.23
2023-02-23T23:24:07.754Z,35.83
2023-02-23T23:26:39.614Z,35.47
2023-02-23T23:29:12.773Z,38.43
2023-02-23T23:31:45.800Z,38.17
2023-02-23T23:34:16.317Z,40.77
2023-02-23T23:36:53.078Z,38.93
2023-02-23T23:39:23.678Z,41.77
2023-02-23T23:41:50.942Z,45.47
2023-02-23T23:44:21.356Z,41.40
2023-02-23T23:46:50.755Z,42.67
2023-02-23T23:49:25.426Z,46.77
2023-02-23T23:51:56.218Z,37.90
2023-02-23T23:54:31.749Z,40.67
2023-02-23T23:57:03.559Z,40.47
2023-02-23T23:59:31.989Z,40.77
